Time;durP1;ratioP1;P1;durP2;ratioP2;P2;SDS_P1;SDS_P2;PMS_P1;PMS_P2;Temp;Humidity;BMP_temperature;BMP_pressure;BME280_temperature;BME280_humidity;BME280_pressure;Samples;Min_cycle;Max_cycle;Signal;HPM_P1;HPM_P2
2023/07/29 00:00:53;;;;;;;15.98;10.77;;;;;;;-146.25;100.00;52242.50;2088675;28;29814;-71
2023/07/29 00:01:54;;;;;;;15.70;12.18;;;;;;;-146.25;100.00;52274.94;2088095;28;34948;-71
2023/07/29 00:02:58;;;;;;;14.90;10.75;;;;;;;-146.25;100.00;52248.56;2088954;28;20113;-71
2023/07/29 00:04:00;;;;;;;18.65;13.15;;;;;;;-146.25;100.00;52254.66;2088568;28;36471;-71
2023/07/29 00:05:01;;;;;;;16.02;11.02;;;;;;;-146.25;100.00;52272.91;2088655;28;32576;-71
2023/07/29 00:06:03;;;;;;;15.40;12.20;;;;;;;-146.25;100.00;52238.44;2088953;28;34138;-71
2023/07/29 00:07:05;;;;;;;19.35;13.45;;;;;;;-146.25;100.00;52258.72;2088946;28;34792;-71
2023/07/29 00:08:07;;;;;;;14.95;11.77;;;;;;;-146.25;100.00;52258.72;2088574;28;33848;-71
2023/07/29 00:09:09;;;;;;;16.63;12.07;;;;;;;-146.25;100.00;52242.50;2088407;28;32827;-71
2023/07/29 00:10:10;;;;;;;14.10;11.45;;;;;;;-146.25;100.00;52307.38;2079812;28;39227;-72
2023/07/29 00:11:12;;;;;;;13.38;10.73;;;;;;;-146.25;100.00;52262.75;2080609;28;21020;-70
2023/07/29 00:12:14;;;;;;;14.35;10.30;;;;;;;-146.25;100.00;52248.56;2080567;28;33832;-71
2023/07/29 00:13:15;;;;;;;13.10;10.95;;;;;;;-146.25;100.00;52258.72;2080626;28;28815;-71
2023/07/29 00:14:17;;;;;;;15.05;11.63;;;;;;;-146.25;100.00;52242.50;2080426;28;25555;-70
2023/07/29 00:15:19;;;;;;;14.63;11.27;;;;;;;-146.25;100.00;52252.63;2080524;28;34147;-71
2023/07/29 00:16:22;;;;;;;15.38;10.68;;;;;;;-146.25;100.00;52266.81;2080479;28;36274;-71
2023/07/29 00:17:24;;;;;;;12.65;10.02;;;;;;;-146.25;100.00;52230.31;2081151;28;20046;-71
2023/07/29 00:18:25;;;;;;;12.55;10.43;;;;;;;-146.25;100.00;52311.44;2080571;28;28544;-71
2023/07/29 00:19:28;;;;;;;14.45;11.32;;;;;;;-146.25;100.00;52254.66;2080282;28;32275;-71
2023/07/29 00:20:30;;;;;;;14.63;12.00;;;;;;;-146.25;100.00;52244.50;2080883;28;31968;-71
2023/07/29 00:21:31;;;;;;;12.93;11.20;;;;;;;-146.25;100.00;52234.38;2083005;28;36539;-71
2023/07/29 00:22:33;;;;;;;13.68;11.15;;;;;;;-146.25;100.00;52250.59;2081116;28;20147;-71
2023/07/29 00:23:35;;;;;;;15.55;11.63;;;;;;;-146.25;100.00;52242.50;2080355;28;36838;-71
2023/07/29 00:24:37;;;;;;;14.52;11.18;;;;;;;-146.25;100.00;52270.88;2080744;28;26548;-71
2023/07/29 00:25:38;;;;;;;17.23;12.95;;;;;;;-146.25;100.00;52272.91;2080638;28;34888;-71
2023/07/29 00:26:40;;;;;;;16.58;12.45;;;;;;;-146.25;100.00;52242.50;2080404;28;36097;-71
2023/07/29 00:27:44;;;;;;;13.50;10.63;;;;;;;-146.25;100.00;52281.00;2080458;28;27196;-71
2023/07/29 00:28:46;;;;;;;17.58;12.75;;;;;;;-146.25;100.00;52283.03;2079475;28;29546;-71
2023/07/29 00:29:50;;;;;;;12.32;10.77;;;;;;;-146.25;100.00;52272.91;2079536;28;28533;-71
2023/07/29 00:30:52;;;;;;;16.63;11.60;;;;;;;-146.25;100.00;52264.78;2079053;28;33010;-71
2023/07/29 00:31:56;;;;;;;14.95;11.60;;;;;;;-146.25;100.00;52236.41;2071700;28;25487;-71
2023/07/29 00:32:58;;;;;;;15.98;11.25;;;;;;;-146.25;100.00;52246.53;2079743;28;28841;-72
2023/07/29 00:34:00;;;;;;;13.27;10.68;;;;;;;-146.25;100.00;52244.50;2080109;28;20058;-71
2023/07/29 00:35:02;;;;;;;16.52;12.18;;;;;;;-146.25;100.00;52264.78;2079370;28;30700;-71
2023/07/29 00:36:05;;;;;;;16.60;11.93;;;;;;;-146.25;100.00;52248.56;2080283;28;20046;-71
2023/07/29 00:37:10;;;;;;;15.10;11.75;;;;;;;-146.25;100.00;52234.38;2071707;28;34327;-71
2023/07/29 00:38:12;;;;;;;18.27;13.30;;;;;;;-146.25;100.00;52274.94;2072249;28;20108;-71
2023/07/29 00:39:14;;;;;;;18.92;13.05;;;;;;;-146.25;100.00;52281.00;2080835;28;20042;-71
2023/07/29 00:40:21;;;;;;;17.15;12.07;;;;;;;-146.25;100.00;52262.75;2080231;28;20060;-71
2023/07/29 00:41:23;;;;;;;18.10;12.45;;;;;;;-146.25;100.00;52276.97;2071274;28;30280;-72
2023/07/29 00:42:25;;;;;;;16.20;12.40;;;;;;;-146.25;100.00;52262.75;2073224;28;20139;-71
2023/07/29 00:43:27;;;;;;;14.13;10.60;;;;;;;-146.25;100.00;52246.53;2088133;28;20076;-71
2023/07/29 00:44:28;;;;;;;16.75;12.07;;;;;;;-146.25;100.00;52266.81;2080596;28;20046;-71
2023/07/29 00:45:32;;;;;;;17.27;12.35;;;;;;;-146.25;100.00;52289.13;2079610;28;23399;-71
2023/07/29 00:46:38;;;;;;;16.35;10.85;;;;;;;-146.25;100.00;52274.94;2071767;28;29487;-70
2023/07/29 00:47:42;;;;;;;15.32;11.63;;;;;;;-146.25;100.00;52268.84;2072473;28;26981;-71
2023/07/29 00:48:44;;;;;;;18.02;12.25;;;;;;;-146.25;100.00;52274.94;2079889;28;20049;-71
2023/07/29 00:49:46;;;;;;;19.55;12.95;;;;;;;-146.25;100.00;52274.94;2079620;28;20169;-71
2023/07/29 00:50:50;;;;;;;19.80;14.00;;;;;;;-146.25;100.00;52240.47;2081200;28;20034;-71
2023/07/29 00:51:55;;;;;;;21.00;14.10;;;;;;;-146.25;100.00;52285.06;2079836;28;31657;-71
2023/07/29 00:53:00;;;;;;;21.00;13.10;;;;;;;-146.25;100.00;52254.66;2080219;28;20042;-71
2023/07/29 00:54:02;;;;;;;19.92;13.07;;;;;;;-146.25;100.00;52242.50;2079423;28;26998;-71
2023/07/29 00:55:06;;;;;;;17.02;12.52;;;;;;;-146.25;100.00;52293.19;2080460;28;20949;-72
2023/07/29 00:56:08;;;;;;;18.67;12.82;;;;;;;-146.25;100.00;52254.66;2079408;28;26878;-71
2023/07/29 00:57:15;;;;;;;18.98;12.18;;;;;;;-146.25;100.00;52258.72;2080042;28;20041;-71
2023/07/29 00:58:17;;;;;;;16.52;12.23;;;;;;;-146.25;100.00;52262.75;2072693;28;20261;-72
2023/07/29 00:59:21;;;;;;;14.63;11.65;;;;;;;-146.25;100.00;52258.72;2068408;28;35141;-73
2023/07/29 01:00:24;;;;;;;15.05;12.10;;;;;;;-146.25;100.00;52250.59;2078044;28;31108;-71
2023/07/29 01:01:26;;;;;;;18.40;12.82;;;;;;;-146.25;100.00;52246.53;2072191;28;20839;-71
2023/07/29 01:02:29;;;;;;;17.70;13.15;;;;;;;-146.25;100.00;52268.84;2070596;28;36906;-71
2023/07/29 01:03:35;;;;;;;18.27;12.20;;;;;;;-146.25;100.00;52291.16;2071025;28;26339;-71
2023/07/29 01:04:37;;;;;;;18.70;12.75;;;;;;;-146.25;100.00;52266.81;2064152;28;20046;-71
2023/07/29 01:06:04;;;;;;;16.83;11.38;;;;;;;-146.25;100.00;52285.06;2080109;28;20089;-71
2023/07/29 01:07:33;;;;;;;19.33;13.43;;;;;;;-146.25;100.00;52246.53;2071818;28;20259;-71
2023/07/29 01:08:59;;;;;;;20.42;13.77;;;;;;;-146.25;100.00;52274.94;2077948;28;20115;-71
2023/07/29 01:10:23;;;;;;;17.52;12.93;;;;;;;-146.25;100.00;52260.72;2071499;28;26464;-71
2023/07/29 01:12:02;;;;;;;22.38;13.38;;;;;;;-146.25;100.00;52331.69;2076325;28;20120;-71
2023/07/29 01:13:21;;;;;;;18.85;12.45;;;;;;;-146.25;100.00;52262.75;2071315;28;31797;-71
2023/07/29 01:14:38;;;;;;;18.55;12.65;;;;;;;-146.25;100.00;52291.16;2073297;28;30361;-71
2023/07/29 01:16:08;;;;;;;27.30;14.63;;;;;;;-146.25;100.00;52291.16;2071828;28;26357;-71
2023/07/29 01:17:29;;;;;;;22.30;14.27;;;;;;;-146.25;100.00;52256.69;2071978;28;31386;-72
2023/07/29 01:18:36;;;;;;;24.10;14.27;;;;;;;-146.25;100.00;52246.53;2071643;28;20900;-71
2023/07/29 01:19:53;;;;;;;26.13;16.00;;;;;;;-146.25;100.00;52256.69;2072687;28;31290;-71
2023/07/29 01:20:59;;;;;;;22.70;13.77;;;;;;;-146.25;100.00;52258.72;2071667;28;21060;-71
2023/07/29 01:22:02;;;;;;;23.58;14.85;;;;;;;-146.25;100.00;52270.88;2072047;28;32184;-71
2023/07/29 01:23:04;;;;;;;23.95;14.93;;;;;;;-146.25;100.00;52283.03;2071525;28;23297;-71
2023/07/29 01:24:06;;;;;;;19.00;12.45;;;;;;;-146.25;100.00;52268.84;2071983;28;23871;-71
2023/07/29 01:25:08;;;;;;;24.42;14.05;;;;;;;-146.25;100.00;52287.09;2079525;28;28093;-71
2023/07/29 01:26:10;;;;;;;29.58;16.45;;;;;;;-146.25;100.00;52258.72;2071751;28;20042;-71
2023/07/29 01:27:11;;;;;;;33.00;16.92;;;;;;;-146.25;100.00;52285.06;2071798;28;31030;-71
2023/07/29 01:28:15;;;;;;;24.13;13.68;;;;;;;-146.25;100.00;52274.94;2071963;28;20034;-71
2023/07/29 01:29:17;;;;;;;30.98;16.40;;;;;;;-146.25;100.00;52240.47;2071272;28;28959;-71
2023/07/29 01:30:25;;;;;;;27.52;15.82;;;;;;;-146.25;100.00;52252.63;2079240;28;27595;-72
2023/07/29 01:31:36;;;;;;;26.02;13.52;;;;;;;-146.25;100.00;52242.50;2079454;28;20042;-71
2023/07/29 01:32:55;;;;;;;27.90;15.23;;;;;;;-146.25;100.00;52258.72;2068615;28;36790;-71
2023/07/29 01:34:23;;;;;;;24.88;15.65;;;;;;;-146.25;100.00;52305.34;2068789;28;20625;-71
2023/07/29 01:35:46;;;;;;;29.55;15.48;;;;;;;-146.25;100.00;52270.88;2079595;28;29252;-71
2023/07/29 01:36:51;;;;;;;34.78;17.50;;;;;;;-146.25;100.00;52295.19;2071275;28;32320;-72
2023/07/29 01:37:58;;;;;;;48.63;16.70;;;;;;;-146.25;100.00;52230.31;2072623;28;20101;-72
2023/07/29 01:39:03;;;;;;;42.35;18.83;;;;;;;-146.25;100.00;52256.69;2071341;28;20030;-72
2023/07/29 01:40:08;;;;;;;45.00;19.40;;;;;;;-146.25;100.00;52276.97;2071074;28;35682;-72
2023/07/29 01:41:11;;;;;;;72.32;20.30;;;;;;;-146.25;100.00;52295.19;2071384;28;28732;-72
2023/07/29 01:42:13;;;;;;;72.88;18.67;;;;;;;-146.25;100.00;52264.78;2070937;28;33683;-72
2023/07/29 01:43:16;;;;;;;85.50;22.38;;;;;;;-146.25;100.00;52222.22;2072357;28;20038;-72
2023/07/29 01:44:18;;;;;;;52.67;19.45;;;;;;;-146.25;100.00;52258.72;2071045;28;30805;-71
2023/07/29 01:45:28;;;;;;;44.15;18.88;;;;;;;-146.25;100.00;52258.72;2072195;28;20069;-71
2023/07/29 01:46:33;;;;;;;113.97;22.98;;;;;;;-146.25;100.00;52291.16;2078163;28;25670;-71
2023/07/29 01:47:36;;;;;;;56.00;20.67;;;;;;;-146.25;100.00;52270.88;2071142;28;28944;-71
2023/07/29 01:48:39;;;;;;;136.95;23.65;;;;;;;-146.25;100.00;52268.84;2072455;28;20080;-71
2023/07/29 01:49:41;;;;;;;44.55;18.75;;;;;;;-146.25;100.00;52266.81;2072131;28;20030;-71
2023/07/29 01:50:45;;;;;;;66.40;18.90;;;;;;;-146.25;100.00;52276.97;2079234;28;28586;-71
2023/07/29 01:51:47;;;;;;;61.78;18.33;;;;;;;-146.25;100.00;52274.94;2072214;28;27531;-72
2023/07/29 01:52:49;;;;;;;51.65;20.73;;;;;;;-146.25;100.00;52268.84;2071538;28;21089;-72
2023/07/29 01:53:53;;;;;;;53.05;19.13;;;;;;;-146.25;100.00;52283.03;2071235;28;31313;-71
2023/07/29 01:54:57;;;;;;;64.32;19.50;;;;;;;-146.25;100.00;52260.72;2063349;28;20659;-72
2023/07/29 01:55:59;;;;;;;58.53;21.05;;;;;;;-146.25;100.00;52299.25;2063893;28;36890;-72
2023/07/29 01:57:04;;;;;;;70.40;21.65;;;;;;;-146.25;100.00;52276.97;2079408;28;20124;-72
2023/07/29 01:58:08;;;;;;;51.20;19.27;;;;;;;-146.25;100.00;52228.28;2079688;28;20423;-72
2023/07/29 01:59:13;;;;;;;53.67;20.73;;;;;;;-146.25;100.00;52248.56;2071398;28;20045;-72
2023/07/29 02:00:18;;;;;;;57.97;20.05;;;;;;;-146.25;100.00;52287.09;2070618;28;20050;-72
2023/07/29 02:01:20;;;;;;;76.00;20.73;;;;;;;-146.25;100.00;52254.66;2079563;28;20111;-72
2023/07/29 02:02:22;;;;;;;62.50;20.58;;;;;;;-146.25;100.00;52246.53;2072216;28;20180;-72
2023/07/29 02:03:26;;;;;;;45.85;18.25;;;;;;;-146.25;100.00;52270.88;2071576;28;20042;-72
2023/07/29 02:04:28;;;;;;;45.53;18.80;;;;;;;-146.25;100.00;52246.53;2071856;28;20218;-72
2023/07/29 02:05:30;;;;;;;42.55;20.23;;;;;;;-146.25;100.00;52256.69;2071278;28;24231;-72
2023/07/29 02:06:31;;;;;;;37.85;16.60;;;;;;;-146.25;100.00;52276.97;2079613;28;21041;-72
2023/07/29 02:07:33;;;;;;;45.72;18.70;;;;;;;-146.25;100.00;52258.72;2079083;28;28719;-72
2023/07/29 02:08:35;;;;;;;58.72;21.08;;;;;;;-146.25;100.00;52307.38;2080426;28;20077;-71
2023/07/29 02:09:37;;;;;;;50.60;19.08;;;;;;;-146.25;100.00;52274.94;2079625;28;20042;-72
2023/07/29 02:10:38;;;;;;;39.88;18.05;;;;;;;-146.25;100.00;52293.19;2071364;28;21037;-72
2023/07/29 02:11:40;;;;;;;51.30;18.85;;;;;;;-146.25;100.00;52287.09;2079622;28;20160;-72
2023/07/29 02:12:42;;;;;;;64.78;18.58;;;;;;;-146.25;100.00;52305.34;2079449;28;30269;-72
2023/07/29 02:13:46;;;;;;;46.83;16.40;;;;;;;-146.25;100.00;52333.72;2080679;28;20866;-72
2023/07/29 02:14:47;;;;;;;98.13;20.95;;;;;;;-146.25;100.00;52283.03;2079856;28;20903;-72
2023/07/29 02:15:49;;;;;;;39.22;18.58;;;;;;;-146.25;100.00;52256.69;2080182;28;23848;-71
2023/07/29 02:16:55;;;;;;;40.95;17.30;;;;;;;-146.25;100.00;52287.09;2080279;28;20046;-72
2023/07/29 02:17:59;;;;;;;30.88;18.55;;;;;;;-146.25;100.00;52307.38;2087529;28;24047;-71
2023/07/29 02:19:01;;;;;;;45.78;18.88;;;;;;;-146.25;100.00;52291.16;2087023;28;26484;-72
2023/07/29 02:20:04;;;;;;;27.95;17.02;;;;;;;-146.25;100.00;52262.75;2080141;28;20042;-72
2023/07/29 02:21:06;;;;;;;31.35;16.30;;;;;;;-146.25;100.00;52283.03;2079160;28;20112;-72
2023/07/29 02:22:10;;;;;;;26.88;16.27;;;;;;;-146.25;100.00;52246.53;2079549;28;20034;-72
2023/07/29 02:23:12;;;;;;;29.20;19.10;;;;;;;-146.25;100.00;52268.84;2079022;28;20133;-72
2023/07/29 02:24:13;;;;;;;29.00;19.50;;;;;;;-146.25;100.00;52309.41;2070805;28;20184;-72
2023/07/29 02:25:15;;;;;;;33.08;21.10;;;;;;;-146.25;100.00;52274.94;2079682;28;20934;-72
2023/07/29 02:26:18;;;;;;;28.45;19.38;;;;;;;-146.25;100.00;52238.44;2079935;28;24881;-72
2023/07/29 02:27:20;;;;;;;32.80;21.83;;;;;;;-146.25;100.00;52274.94;2079031;28;27791;-72
2023/07/29 02:28:25;;;;;;;35.08;21.60;;;;;;;-146.25;100.00;52287.09;2079552;28;20084;-76
2023/07/29 02:29:27;;;;;;;32.63;21.45;;;;;;;-146.25;100.00;52289.13;2070516;28;20550;-70
2023/07/29 02:30:28;;;;;;;35.28;22.98;;;;;;;-146.25;100.00;52319.53;2071099;28;20042;-72
2023/07/29 02:31:34;;;;;;;40.97;22.08;;;;;;;-146.25;100.00;52285.06;2078871;28;36368;-72
2023/07/29 02:32:36;;;;;;;33.75;20.58;;;;;;;-146.25;100.00;52276.97;2071238;28;20069;-72
2023/07/29 02:33:38;;;;;;;32.72;20.55;;;;;;;-146.25;100.00;52258.72;2071163;28;20045;-72
2023/07/29 02:34:40;;;;;;;37.70;19.08;;;;;;;-146.25;100.00;52301.28;2071114;28;20136;-72
2023/07/29 02:35:42;;;;;;;53.80;22.40;;;;;;;-146.25;100.00;52270.88;2071526;28;20046;-72
2023/07/29 02:36:45;;;;;;;40.58;23.10;;;;;;;-146.25;100.00;52260.72;2071090;28;20045;-72
2023/07/29 02:37:47;;;;;;;37.83;22.75;;;;;;;-146.25;100.00;52291.16;2079267;28;20141;-72
2023/07/29 02:38:49;;;;;;;38.20;21.58;;;;;;;-146.25;100.00;52319.53;2079525;28;20602;-72
2023/07/29 02:39:51;;;;;;;34.30;23.67;;;;;;;-146.25;100.00;52291.16;2070371;28;29845;-72
2023/07/29 02:40:52;;;;;;;35.53;21.95;;;;;;;-146.25;100.00;52272.91;2070731;28;20133;-72
2023/07/29 02:41:55;;;;;;;30.25;21.13;;;;;;;-146.25;100.00;52281.00;2070634;28;30721;-72
2023/07/29 02:42:57;;;;;;;25.50;19.15;;;;;;;-146.25;100.00;52303.31;2071272;28;20073;-72
2023/07/29 02:43:59;;;;;;;26.27;19.67;;;;;;;-146.25;100.00;52295.19;2071463;28;20085;-72
2023/07/29 02:45:01;;;;;;;29.15;20.83;;;;;;;-146.25;100.00;52281.00;2062814;28;20102;-72
2023/07/29 02:46:02;;;;;;;32.47;22.30;;;;;;;-146.25;100.00;52329.66;2070997;28;20034;-72
2023/07/29 02:47:04;;;;;;;27.38;20.92;;;;;;;-146.25;100.00;52285.06;2071094;28;21640;-72
2023/07/29 02:48:06;;;;;;;28.48;21.70;;;;;;;-146.25;100.00;52309.41;2063146;28;20134;-72
2023/07/29 02:49:08;;;;;;;29.08;21.40;;;;;;;-146.25;100.00;52264.78;2070791;28;32006;-72
2023/07/29 02:50:10;;;;;;;28.95;22.38;;;;;;;-146.25;100.00;52250.59;2071012;28;20073;-72
2023/07/29 02:51:11;;;;;;;31.05;22.35;;;;;;;-146.25;100.00;52283.03;2071197;28;20078;-72
2023/07/29 02:52:13;;;;;;;31.55;22.50;;;;;;;-146.25;100.00;52297.22;2071067;28;20049;-72
2023/07/29 02:53:15;;;;;;;33.03;23.70;;;;;;;-146.25;100.00;52281.00;2072364;28;25769;-72
2023/07/29 02:54:19;;;;;;;32.65;22.65;;;;;;;-146.25;100.00;52258.72;2071981;28;28048;-72
2023/07/29 02:55:20;;;;;;;30.80;21.90;;;;;;;-146.25;100.00;52287.09;2064600;28;20185;-72
2023/07/29 02:56:22;;;;;;;30.27;22.17;;;;;;;-146.25;100.00;52307.38;2072725;28;20090;-72
2023/07/29 02:57:24;;;;;;;30.58;22.38;;;;;;;-146.25;100.00;52295.19;2072283;28;26403;-72
2023/07/29 02:58:26;;;;;;;34.85;23.17;;;;;;;-146.25;100.00;52283.03;2073371;28;20883;-72
2023/07/29 02:59:28;;;;;;;33.22;23.45;;;;;;;-146.25;100.00;52295.19;2074574;28;20076;-72
2023/07/29 03:00:32;;;;;;;27.08;20.15;;;;;;;-146.25;100.00;52238.44;2080448;28;20164;-72
2023/07/29 03:01:37;;;;;;;30.23;22.02;;;;;;;-146.25;100.00;52272.91;2080919;28;20045;-72
2023/07/29 03:02:39;;;;;;;30.40;22.75;;;;;;;-146.25;100.00;52252.63;2072336;28;20117;-72
2023/07/29 03:03:41;;;;;;;32.92;22.33;;;;;;;-146.25;100.00;52234.38;2072833;28;20035;-72
2023/07/29 03:04:43;;;;;;;37.03;24.63;;;;;;;-146.25;100.00;52299.25;2072360;28;20045;-72
2023/07/29 03:05:45;;;;;;;34.47;23.25;;;;;;;-146.25;100.00;52256.69;2071926;28;36624;-72
2023/07/29 03:06:48;;;;;;;35.90;24.55;;;;;;;-146.25;100.00;52289.13;2080641;28;20096;-72
2023/07/29 03:07:54;;;;;;;30.63;22.30;;;;;;;-146.25;100.00;52299.25;2072291;28;20046;-72
2023/07/29 03:08:56;;;;;;;36.92;25.80;;;;;;;-146.25;100.00;52248.56;2064842;28;20877;-72
2023/07/29 03:09:57;;;;;;;33.92;24.98;;;;;;;-146.25;100.00;52281.00;2072691;28;20217;-72
2023/07/29 03:11:07;;;;;;;35.95;24.45;;;;;;;-146.25;100.00;52268.84;2073162;28;20038;-73
2023/07/29 03:12:08;;;;;;;35.00;23.60;;;;;;;-146.25;100.00;52295.19;2072771;28;26390;-72
2023/07/29 03:13:10;;;;;;;35.10;25.13;;;;;;;-146.25;100.00;52321.56;2072356;28;20120;-72
2023/07/29 03:14:12;;;;;;;37.78;26.50;;;;;;;-146.25;100.00;52289.13;2064337;28;21062;-72
2023/07/29 03:15:14;;;;;;;31.80;23.48;;;;;;;-146.25;100.00;52299.25;2071907;28;20105;-72
2023/07/29 03:16:17;;;;;;;37.35;26.20;;;;;;;-146.25;100.00;52266.81;2080606;28;20069;-72
2023/07/29 03:17:29;;;;;;;35.90;24.58;;;;;;;-146.25;100.00;52246.53;2073407;28;20243;-72
2023/07/29 03:18:30;;;;;;;34.17;24.23;;;;;;;-146.25;100.00;52309.41;2080299;28;29966;-72
2023/07/29 03:19:32;;;;;;;35.80;24.77;;;;;;;-146.25;100.00;52293.19;2080271;28;32976;-72
2023/07/29 03:20:34;;;;;;;34.05;25.30;;;;;;;-146.25;100.00;52319.53;2072753;28;20049;-72
2023/07/29 03:21:38;;;;;;;37.97;26.42;;;;;;;-146.25;100.00;52327.66;2071871;28;28234;-72
2023/07/29 03:22:40;;;;;;;35.05;25.48;;;;;;;-146.25;100.00;52283.03;2073232;28;20041;-72
2023/07/29 03:23:42;;;;;;;34.00;24.02;;;;;;;-146.25;100.00;52313.44;2072327;28;20197;-72
2023/07/29 03:24:43;;;;;;;34.17;24.00;;;;;;;-146.25;100.00;52268.84;2072113;28;20140;-72
2023/07/29 03:25:51;;;;;;;34.47;24.65;;;;;;;-146.25;100.00;52303.31;2080158;28;32216;-72
2023/07/29 03:26:52;;;;;;;37.13;25.60;;;;;;;-146.25;100.00;52272.91;2079999;28;20053;-72
2023/07/29 03:27:55;;;;;;;32.00;22.52;;;;;;;-146.25;100.00;52250.59;2072562;28;20031;-72
2023/07/29 03:28:57;;;;;;;36.10;25.48;;;;;;;-146.25;100.00;52289.13;2072293;28;25267;-72
2023/07/29 03:29:59;;;;;;;33.97;24.90;;;;;;;-146.25;100.00;52343.88;2078978;28;20207;-73
2023/07/29 03:31:01;;;;;;;33.05;24.50;;;;;;;-146.25;100.00;52285.06;2088907;28;20156;-72
2023/07/29 03:32:04;;;;;;;37.67;26.65;;;;;;;-146.25;100.00;52309.41;2071924;28;20923;-73
2023/07/29 03:33:06;;;;;;;37.42;24.90;;;;;;;-146.25;100.00;52272.91;2072953;28;20085;-72
2023/07/29 03:34:10;;;;;;;37.63;25.95;;;;;;;-146.25;100.00;52260.72;2080188;28;20169;-72
2023/07/29 03:35:17;;;;;;;36.88;25.90;;;;;;;-146.25;100.00;52293.19;2073379;28;20221;-72
2023/07/29 03:36:19;;;;;;;37.17;25.60;;;;;;;-146.25;100.00;52195.84;2080934;28;20906;-73
2023/07/29 03:37:21;;;;;;;38.40;26.13;;;;;;;-146.25;100.00;52303.31;2081276;28;20046;-72
2023/07/29 03:38:23;;;;;;;36.67;25.20;;;;;;;-146.25;100.00;52343.88;2079616;28;34256;-72
2023/07/29 03:39:27;;;;;;;37.25;25.27;;;;;;;-146.25;100.00;52297.22;2080449;28;21844;-72
2023/07/29 03:40:28;;;;;;;37.45;25.50;;;;;;;-146.25;100.00;52285.06;2080293;28;28286;-72
2023/07/29 03:41:31;;;;;;;38.78;25.75;;;;;;;-146.25;100.00;52301.28;2080403;28;24098;-72
2023/07/29 03:42:33;;;;;;;36.53;25.10;;;;;;;-146.25;100.00;52285.06;2081471;28;20077;-72
2023/07/29 03:43:35;;;;;;;38.53;25.30;;;;;;;-146.25;100.00;52303.31;2080536;28;20080;-72
2023/07/29 03:44:39;;;;;;;30.45;21.80;;;;;;;-146.25;100.00;52285.06;2072541;28;20049;-73
2023/07/29 03:45:41;;;;;;;34.33;23.55;;;;;;;-146.25;100.00;52266.81;2080310;28;20968;-72
2023/07/29 03:46:42;;;;;;;38.40;27.15;;;;;;;-146.25;100.00;52274.94;2080371;28;30544;-72
2023/07/29 03:47:47;;;;;;;36.45;24.30;;;;;;;-146.25;100.00;52274.94;2080716;28;20454;-72
2023/07/29 03:48:51;;;;;;;31.05;21.83;;;;;;;-146.25;100.00;52297.22;2081068;28;20057;-72
2023/07/29 03:49:55;;;;;;;34.95;25.15;;;;;;;-146.25;100.00;52315.47;2080452;28;21152;-72
2023/07/29 03:50:57;;;;;;;37.42;25.35;;;;;;;-146.25;100.00;52246.53;2080201;28;20922;-72
2023/07/29 03:51:59;;;;;;;34.03;23.15;;;;;;;-146.25;100.00;52291.16;2080358;28;30525;-73
2023/07/29 03:53:05;;;;;;;30.02;22.48;;;;;;;-146.25;100.00;52264.78;2080659;28;29451;-72
2023/07/29 03:54:06;;;;;;;31.10;21.88;;;;;;;-146.25;100.00;52307.38;2080524;28;20153;-72
2023/07/29 03:55:09;;;;;;;32.47;24.63;;;;;;;-146.25;100.00;52295.19;2079730;28;32113;-72
2023/07/29 03:56:10;;;;;;;40.30;26.70;;;;;;;-146.25;100.00;52287.09;2072247;28;20121;-72
2023/07/29 03:57:12;;;;;;;35.78;24.55;;;;;;;-146.25;100.00;52285.06;2072682;28;20577;-72
2023/07/29 03:58:14;;;;;;;36.05;24.63;;;;;;;-146.25;100.00;52309.41;2088354;28;20144;-72
2023/07/29 03:59:17;;;;;;;32.55;23.55;;;;;;;-146.25;100.00;52283.03;2079889;28;28197;-72
2023/07/29 04:00:19;;;;;;;36.42;25.35;;;;;;;-146.25;100.00;52291.16;2080100;28;20914;-72
2023/07/29 04:01:23;;;;;;;34.80;25.40;;;;;;;-146.25;100.00;52291.16;2071800;28;20331;-72
2023/07/29 04:02:25;;;;;;;33.30;22.95;;;;;;;-146.25;100.00;52293.19;2072260;28;20081;-71
2023/07/29 04:03:30;;;;;;;34.13;22.65;;;;;;;-146.25;100.00;52285.06;2071954;28;20090;-72
2023/07/29 04:04:32;;;;;;;30.00;21.42;;;;;;;-146.25;100.00;52303.31;2071310;28;20157;-73
2023/07/29 04:05:37;;;;;;;34.42;24.08;;;;;;;-146.25;100.00;52291.16;2064550;28;20047;-72
2023/07/29 04:06:39;;;;;;;33.42;23.27;;;;;;;-146.25;100.00;52305.34;2064445;28;20788;-72
2023/07/29 04:07:41;;;;;;;32.85;23.35;;;;;;;-146.25;100.00;52274.94;2064085;28;20051;-72
2023/07/29 04:08:42;;;;;;;36.80;24.58;;;;;;;-146.25;100.00;52297.22;2064057;28;20047;-72
2023/07/29 04:09:44;;;;;;;33.83;25.23;;;;;;;-146.25;100.00;52270.88;2063871;28;20313;-72
2023/07/29 04:10:49;;;;;;;31.42;22.45;;;;;;;-146.25;100.00;52250.59;2064592;28;20919;-72
2023/07/29 04:11:51;;;;;;;35.72;24.88;;;;;;;-146.25;100.00;52264.78;2072087;28;20827;-72
2023/07/29 04:12:53;;;;;;;35.80;24.05;;;;;;;-146.25;100.00;52301.28;2079763;28;25624;-72
2023/07/29 04:13:57;;;;;;;34.22;24.83;;;;;;;-146.25;100.00;52303.31;2080476;28;20045;-72
2023/07/29 04:14:59;;;;;;;41.53;27.40;;;;;;;-146.25;100.00;52293.19;2072618;28;20055;-72
2023/07/29 04:16:01;;;;;;;41.70;27.48;;;;;;;-146.25;100.00;52305.34;2072277;28;30914;-72
2023/07/29 04:17:04;;;;;;;36.15;23.95;;;;;;;-146.25;100.00;52287.09;2080261;28;20673;-72
2023/07/29 04:18:05;;;;;;;40.25;27.13;;;;;;;-146.25;100.00;52303.31;2080370;28;20201;-72
2023/07/29 04:19:12;;;;;;;36.55;25.83;;;;;;;-146.25;100.00;52291.16;2071850;28;20046;-72
2023/07/29 04:20:14;;;;;;;43.95;27.00;;;;;;;-146.25;100.00;52293.19;2064395;28;20161;-72
2023/07/29 04:21:16;;;;;;;37.78;25.15;;;;;;;-146.25;100.00;52270.88;2072079;28;20890;-72
2023/07/29 04:22:22;;;;;;;37.75;26.08;;;;;;;-146.25;100.00;52323.59;2071847;28;20164;-72
2023/07/29 04:23:23;;;;;;;48.10;28.17;;;;;;;-146.25;100.00;52293.19;2071475;28;26037;-72
2023/07/29 04:24:25;;;;;;;39.17;27.40;;;;;;;-146.25;100.00;52311.44;2080229;28;21065;-72
2023/07/29 04:25:28;;;;;;;47.40;28.65;;;;;;;-146.25;100.00;52285.06;2071874;28;20050;-72
2023/07/29 04:26:30;;;;;;;39.28;27.55;;;;;;;-146.25;100.00;52319.53;2063748;28;20047;-72
2023/07/29 04:27:31;;;;;;;41.40;27.17;;;;;;;-146.25;100.00;52272.91;2063918;28;26210;-72
2023/07/29 04:28:33;;;;;;;43.88;28.50;;;;;;;-146.25;100.00;52299.25;2071319;28;32022;-72
2023/07/29 04:29:36;;;;;;;39.28;26.60;;;;;;;-146.25;100.00;52311.44;2083483;28;20982;-72
2023/07/29 04:30:37;;;;;;;41.67;26.48;;;;;;;-146.25;100.00;52283.03;2080162;28;29058;-72
2023/07/29 04:31:39;;;;;;;35.95;25.05;;;;;;;-146.25;100.00;52299.25;2081198;28;20168;-71
2023/07/29 04:32:42;;;;;;;41.33;25.85;;;;;;;-146.25;100.00;52321.56;2071835;28;20035;-72
2023/07/29 04:33:44;;;;;;;41.78;27.73;;;;;;;-146.25;100.00;52305.34;2064415;28;20046;-72
2023/07/29 04:34:46;;;;;;;40.53;27.73;;;;;;;-146.25;100.00;52323.59;2080306;28;20092;-72
2023/07/29 04:35:47;;;;;;;44.97;28.38;;;;;;;-146.25;100.00;52333.72;2087857;28;28490;-72
2023/07/29 04:36:49;;;;;;;37.88;25.20;;;;;;;-146.25;100.00;52297.22;2079824;28;33528;-72
2023/07/29 04:37:51;;;;;;;40.60;27.10;;;;;;;-146.25;100.00;52258.72;2080111;28;20048;-72
2023/07/29 04:38:55;;;;;;;35.83;24.70;;;;;;;-146.25;100.00;52299.25;2079784;28;20866;-72
2023/07/29 04:39:57;;;;;;;43.15;27.48;;;;;;;-146.25;100.00;52295.19;2072343;28;20176;-72
2023/07/29 04:41:02;;;;;;;43.67;27.85;;;;;;;-146.25;100.00;52291.16;2079921;28;20054;-72
2023/07/29 04:42:04;;;;;;;44.65;28.00;;;;;;;-146.25;100.00;52299.25;2080317;28;29836;-72
2023/07/29 04:43:09;;;;;;;40.33;27.00;;;;;;;-146.25;100.00;52283.03;2079768;28;20097;-72
2023/07/29 04:44:13;;;;;;;41.63;26.00;;;;;;;-146.25;100.00;52295.19;2080077;28;24106;-72